Time;durP1;ratioP1;P1;durP2;ratioP2;P2;SDS_P1;SDS_P2;PMS_P1;PMS_P2;Temp;Humidity;BMP_temperature;BMP_pressure;BME280_temperature;BME280_humidity;BME280_pressure;Samples;Min_cycle;Max_cycle;Signal;HPM_P1;HPM_P2
2021/05/01 00:01:45;;;;;;;1.50;1.10;;;9.90;98.20;;;;;;5008958;28;20491;-78
2021/05/01 00:04:11;;;;;;;1.50;1.20;;;9.90;98.20;;;;;;5018938;28;20811;-78
2021/05/01 00:06:37;;;;;;;1.50;1.10;;;9.90;98.20;;;;;;5000985;28;20545;-78
2021/05/01 00:09:04;;;;;;;1.50;1.10;;;9.90;98.20;;;;;;5012192;28;20746;-78
2021/05/01 00:11:31;;;;;;;1.50;1.10;;;9.90;98.20;;;;;;5006312;28;20860;-78
2021/05/01 00:13:58;;;;;;;1.50;1.10;;;9.90;98.20;;;;;;5037706;28;20865;-78
2021/05/01 00:16:27;;;;;;;1.50;1.10;;;9.90;98.20;;;;;;5011458;28;20520;-78
2021/05/01 00:18:55;;;;;;;1.50;1.20;;;9.80;98.20;;;;;;5023688;28;20472;-78
2021/05/01 00:21:21;;;;;;;1.50;1.10;;;9.80;98.20;;;;;;5002450;28;20557;-78
2021/05/01 00:23:48;;;;;;;1.50;1.10;;;9.80;98.20;;;;;;5010921;28;20489;-78
2021/05/01 00:26:14;;;;;;;1.50;1.10;;;9.80;98.20;;;;;;4992265;28;20847;-78
2021/05/01 00:28:40;;;;;;;1.50;1.10;;;9.80;98.20;;;;;;5019911;28;20460;-77
2021/05/01 00:31:07;;;;;;;1.50;1.10;;;9.80;98.20;;;;;;5004202;28;20748;-78
2021/05/01 00:33:35;;;;;;;1.50;1.10;;;9.70;98.20;;;;;;5023094;28;20575;-78
2021/05/01 00:36:02;;;;;;;1.50;1.10;;;9.70;98.20;;;;;;4996735;28;20468;-78
2021/05/01 00:38:29;;;;;;;1.50;1.10;;;9.70;98.20;;;;;;5018558;28;20540;-78
2021/05/01 00:40:55;;;;;;;1.50;1.10;;;9.70;98.20;;;;;;5003495;28;20757;-78
2021/05/01 00:43:22;;;;;;;1.50;1.10;;;9.70;98.20;;;;;;5033944;28;20801;-78
2021/05/01 00:45:48;;;;;;;1.50;1.10;;;9.70;98.20;;;;;;5002396;28;20471;-78
2021/05/01 00:48:14;;;;;;;1.50;1.13;;;9.70;98.20;;;;;;5023942;28;20472;-78
2021/05/01 00:50:42;;;;;;;1.50;1.20;;;9.70;98.20;;;;;;5010948;28;20468;-79
2021/05/01 00:53:26;;;;;;;;;;;;;;;;;;;;;
2021/05/01 00:55:53;;;;;;;1.50;1.13;;;9.60;98.20;;;;;;4999921;28;20970;-78
2021/05/01 00:58:21;;;;;;;1.50;1.10;;;9.60;98.20;;;;;;5006279;28;20500;-77
2021/05/01 01:01:00;;;;;;;1.50;1.00;;;9.60;98.20;;;;;;4981534;28;20469;-77
2021/05/01 01:03:27;;;;;;;1.50;1.20;;;9.60;98.20;;;;;;5025444;28;20481;-78
2021/05/01 01:05:54;;;;;;;1.50;1.20;;;9.50;98.20;;;;;;4999883;28;20470;-78
2021/05/01 01:08:21;;;;;;;1.50;1.10;;;9.50;98.20;;;;;;5005021;28;20960;-78
2021/05/01 01:10:47;;;;;;;1.50;1.17;;;9.40;98.20;;;;;;4996232;28;20475;-78
2021/05/01 01:13:14;;;;;;;1.50;1.10;;;9.40;98.20;;;;;;5017490;28;20488;-77
2021/05/01 01:15:40;;;;;;;1.50;1.10;;;9.40;98.20;;;;;;5010706;28;20550;-78
2021/05/01 01:18:06;;;;;;;1.50;1.10;;;9.30;98.20;;;;;;5018075;28;20480;-78
2021/05/01 01:20:33;;;;;;;1.50;1.00;;;9.30;98.20;;;;;;5010125;28;20959;-78
2021/05/01 01:23:00;;;;;;;1.50;1.10;;;9.30;98.20;;;;;;5004001;28;20554;-78
2021/05/01 01:25:27;;;;;;;1.50;1.10;;;9.30;98.20;;;;;;4991958;28;20837;-78
2021/05/01 01:27:53;;;;;;;1.50;1.10;;;9.30;98.20;;;;;;5022128;28;20490;-77
2021/05/01 01:30:25;;;;;;;1.50;1.20;;;9.30;98.20;;;;;;5007460;28;20820;-78
2021/05/01 01:32:51;;;;;;;1.50;1.00;;;9.20;98.20;;;;;;5015196;28;20502;-78
2021/05/01 01:35:18;;;;;;;1.50;1.20;;;9.20;98.20;;;;;;4998638;28;20486;-77
2021/05/01 01:37:46;;;;;;;1.50;1.20;;;9.20;98.20;;;;;;5025930;28;20620;-77
2021/05/01 01:40:15;;;;;;;1.50;1.20;;;9.10;98.20;;;;;;5019069;28;20836;-77
2021/05/01 01:42:43;;;;;;;1.50;1.20;;;9.00;98.20;;;;;;5009690;28;20487;-78
2021/05/01 01:45:13;;;;;;;1.50;1.10;;;8.90;98.20;;;;;;5002781;28;20460;-77
2021/05/01 01:47:40;;;;;;;1.50;1.10;;;8.90;98.20;;;;;;5009684;28;20516;-78
2021/05/01 01:50:09;;;;;;;1.50;1.20;;;8.80;98.20;;;;;;5005235;28;20459;-78
2021/05/01 01:52:36;;;;;;;1.50;1.10;;;8.70;98.20;;;;;;5019019;28;20498;-77
2021/05/01 01:55:04;;;;;;;1.50;1.20;;;8.70;98.20;;;;;;4992523;28;20518;-78
2021/05/01 01:57:31;;;;;;;1.50;1.20;;;8.60;98.20;;;;;;5015338;28;20573;-78
2021/05/01 01:59:57;;;;;;;1.50;1.10;;;8.50;98.20;;;;;;5012267;28;20971;-78
2021/05/01 02:02:24;;;;;;;1.50;1.20;;;8.50;98.20;;;;;;4999690;28;20515;-79
2021/05/01 02:04:50;;;;;;;1.50;1.20;;;8.40;98.20;;;;;;5010267;28;20510;-78
2021/05/01 02:07:18;;;;;;;1.53;1.20;;;8.40;98.20;;;;;;5010738;28;20486;-77
2021/05/01 02:09:45;;;;;;;1.50;1.27;;;8.30;98.20;;;;;;5011738;28;20543;-78
2021/05/01 02:12:11;;;;;;;1.50;1.13;;;8.30;98.20;;;;;;5005522;28;20488;-77
2021/05/01 02:14:39;;;;;;;1.53;1.27;;;8.20;98.20;;;;;;4994606;28;20496;-77
2021/05/01 02:17:05;;;;;;;1.50;1.20;;;8.20;98.20;;;;;;4997567;28;21142;-77
2021/05/01 02:19:31;;;;;;;1.60;1.20;;;8.10;98.20;;;;;;5012595;28;20460;-78
2021/05/01 02:21:58;;;;;;;1.50;1.10;;;8.10;98.20;;;;;;5017050;28;20489;-77
2021/05/01 02:24:24;;;;;;;1.53;1.20;;;8.00;98.20;;;;;;5018407;28;20461;-77
2021/05/01 02:26:50;;;;;;;1.50;1.20;;;8.00;98.20;;;;;;5006708;28;20590;-78
2021/05/01 02:29:17;;;;;;;1.50;1.10;;;8.00;98.20;;;;;;5019934;28;20499;-77
2021/05/01 02:31:45;;;;;;;1.50;1.30;;;8.00;98.20;;;;;;5012952;28;20497;-78
2021/05/01 02:34:11;;;;;;;1.50;1.20;;;7.90;98.20;;;;;;5023299;28;20525;-78
2021/05/01 02:36:38;;;;;;;1.57;1.30;;;7.90;98.20;;;;;;5002892;28;20474;-78
2021/05/01 02:39:05;;;;;;;1.53;1.20;;;7.80;98.20;;;;;;5012801;28;20468;-78
2021/05/01 02:41:32;;;;;;;1.50;1.20;;;7.80;98.20;;;;;;5009993;28;20974;-78
2021/05/01 02:43:58;;;;;;;1.50;1.20;;;7.70;98.20;;;;;;5023766;28;20607;-77
2021/05/01 02:46:25;;;;;;;1.50;1.20;;;7.70;98.20;;;;;;5001014;28;20483;-78
2021/05/01 02:48:52;;;;;;;1.50;1.30;;;7.60;98.20;;;;;;5016409;28;20844;-78
2021/05/01 02:51:18;;;;;;;1.50;1.20;;;7.60;98.20;;;;;;5002272;28;20926;-78
2021/05/01 02:53:45;;;;;;;1.50;1.23;;;7.60;98.20;;;;;;5016085;28;20527;-78
2021/05/01 02:56:11;;;;;;;1.50;1.30;;;7.50;98.20;;;;;;5000671;28;20514;-78
2021/05/01 02:58:38;;;;;;;1.50;1.10;;;7.50;98.20;;;;;;5011671;28;20956;-78
2021/05/01 03:01:04;;;;;;;1.57;1.30;;;7.50;98.20;;;;;;4996421;28;20599;-78
2021/05/01 03:03:30;;;;;;;1.50;1.17;;;7.40;98.20;;;;;;5020312;28;20495;-78
2021/05/01 03:05:57;;;;;;;1.50;1.23;;;7.40;98.20;;;;;;4991432;28;20472;-78
2021/05/01 03:08:24;;;;;;;1.50;1.20;;;7.40;98.20;;;;;;5016323;28;20472;-78
2021/05/01 03:10:53;;;;;;;1.50;1.10;;;7.40;98.20;;;;;;4999475;28;20526;-78
2021/05/01 03:13:19;;;;;;;1.50;1.20;;;7.30;98.20;;;;;;5027045;28;20480;-78
2021/05/01 03:15:46;;;;;;;1.50;1.23;;;7.30;98.20;;;;;;4997284;28;20892;-78
2021/05/01 03:18:12;;;;;;;1.50;1.20;;;7.30;98.20;;;;;;5011283;28;20531;-78
2021/05/01 03:20:38;;;;;;;1.50;1.20;;;7.30;98.20;;;;;;4992887;28;20495;-78
2021/05/01 03:23:08;;;;;;;1.50;1.20;;;7.30;98.20;;;;;;5020219;28;20501;-78
2021/05/01 03:25:34;;;;;;;1.50;1.20;;;7.40;98.20;;;;;;5003157;28;20461;-78
2021/05/01 03:28:00;;;;;;;1.50;1.30;;;7.40;98.20;;;;;;5005842;28;20483;-78
2021/05/01 03:30:27;;;;;;;1.50;1.20;;;7.40;98.20;;;;;;5007257;28;20472;-78
2021/05/01 03:32:53;;;;;;;1.50;1.30;;;7.50;98.20;;;;;;5006054;28;20574;-78
2021/05/01 03:35:20;;;;;;;1.50;1.20;;;7.50;98.20;;;;;;5006749;28;20480;-77
2021/05/01 03:37:48;;;;;;;1.50;1.10;;;7.50;98.20;;;;;;5029207;28;20479;-78
2021/05/01 03:40:16;;;;;;;1.50;1.20;;;7.50;98.20;;;;;;5003678;28;20862;-77
2021/05/01 03:42:44;;;;;;;1.50;1.20;;;7.60;98.20;;;;;;5011061;28;21026;-78
2021/05/01 03:45:12;;;;;;;1.50;1.20;;;7.50;98.20;;;;;;5007670;28;20834;-78
2021/05/01 03:47:38;;;;;;;1.60;1.30;;;7.50;98.20;;;;;;5020708;28;20524;-78
2021/05/01 03:50:08;;;;;;;1.50;1.20;;;7.50;98.20;;;;;;5002644;28;20474;-78
2021/05/01 03:52:35;;;;;;;1.50;1.30;;;7.50;98.20;;;;;;5011543;28;20549;-78
2021/05/01 03:55:02;;;;;;;1.50;1.20;;;7.50;98.20;;;;;;5007019;28;20484;-78
2021/05/01 03:57:30;;;;;;;1.50;1.23;;;7.50;98.20;;;;;;5014828;28;20576;-78
2021/05/01 03:59:56;;;;;;;1.50;1.20;;;7.40;98.20;;;;;;5001376;28;20473;-78
2021/05/01 04:02:22;;;;;;;1.50;1.20;;;7.40;98.20;;;;;;5008714;28;20565;-78
2021/05/01 04:04:48;;;;;;;1.50;1.30;;;7.30;98.20;;;;;;5012257;28;21033;-78
2021/05/01 04:07:15;;;;;;;1.50;1.10;;;7.30;98.20;;;;;;5017264;28;20513;-78
2021/05/01 04:09:45;;;;;;;1.53;1.30;;;7.30;98.20;;;;;;5009504;28;20465;-78
2021/05/01 04:12:13;;;;;;;1.50;1.30;;;7.20;98.20;;;;;;5004381;28;20515;-79
2021/05/01 04:14:40;;;;;;;1.50;1.20;;;7.20;98.20;;;;;;5009628;28;20571;-78
2021/05/01 04:17:06;;;;;;;1.50;1.23;;;7.20;98.20;;;;;;5014528;28;20526;-78
2021/05/01 04:19:35;;;;;;;1.50;1.20;;;7.10;98.20;;;;;;5015796;28;20842;-78
2021/05/01 04:22:04;;;;;;;1.50;1.20;;;7.10;98.20;;;;;;5002426;28;21033;-79
2021/05/01 04:24:31;;;;;;;1.50;1.20;;;7.10;98.20;;;;;;4997726;28;20552;-78
2021/05/01 04:26:58;;;;;;;1.50;1.30;;;7.10;98.20;;;;;;5011166;28;20486;-77
2021/05/01 04:29:24;;;;;;;1.57;1.37;;;7.10;98.20;;;;;;5018736;28;20985;-78
2021/05/01 04:31:51;;;;;;;1.53;1.20;;;7.10;98.20;;;;;;5015837;28;20859;-78
2021/05/01 04:34:18;;;;;;;1.50;1.20;;;7.10;98.20;;;;;;5016043;28;20878;-78
2021/05/01 04:36:44;;;;;;;1.50;1.20;;;7.20;98.20;;;;;;5007283;28;20478;-77
2021/05/01 04:39:13;;;;;;;1.50;1.20;;;7.20;98.20;;;;;;5023472;28;20966;-77
2021/05/01 04:41:39;;;;;;;1.50;1.20;;;7.20;98.20;;;;;;5005557;28;20479;-77
2021/05/01 04:44:06;;;;;;;1.50;1.20;;;7.20;98.20;;;;;;5009580;28;20835;-77
2021/05/01 04:46:33;;;;;;;1.50;1.30;;;7.20;98.20;;;;;;4998441;28;20567;-78
2021/05/01 04:49:04;;;;;;;1.53;1.20;;;7.30;98.20;;;;;;5021513;28;20465;-78
2021/05/01 04:51:30;;;;;;;1.60;1.30;;;7.30;98.20;;;;;;5005846;28;20470;-77
2021/05/01 04:53:57;;;;;;;1.50;1.20;;;7.30;98.20;;;;;;5022867;28;20500;-78
2021/05/01 04:56:24;;;;;;;1.50;1.20;;;7.30;98.20;;;;;;5003200;28;20490;-78
2021/05/01 04:58:52;;;;;;;1.50;1.20;;;7.40;98.20;;;;;;5028308;28;20830;-78
2021/05/01 05:01:20;;;;;;;1.50;1.20;;;7.40;98.20;;;;;;5005914;28;20466;-77
2021/05/01 05:03:47;;;;;;;1.50;1.30;;;7.40;98.20;;;;;;5027040;28;20495;-78
2021/05/01 05:06:14;;;;;;;1.50;1.30;;;7.50;98.20;;;;;;5002682;28;20487;-77
2021/05/01 05:08:41;;;;;;;1.50;1.13;;;7.50;98.20;;;;;;5002595;28;20472;-78
2021/05/01 05:11:07;;;;;;;1.50;1.10;;;7.50;98.20;;;;;;4986885;28;20486;-77
2021/05/01 05:13:33;;;;;;;1.60;1.40;;;7.50;98.20;;;;;;5027919;28;20476;-78
2021/05/01 05:16:00;;;;;;;1.50;1.20;;;7.50;98.20;;;;;;4996259;28;20606;-78
2021/05/01 05:18:27;;;;;;;1.50;1.20;;;7.50;98.20;;;;;;5023845;28;20464;-78
2021/05/01 05:20:54;;;;;;;1.50;1.20;;;7.50;98.20;;;;;;4994788;28;20468;-78
2021/05/01 05:23:21;;;;;;;1.50;1.20;;;7.40;98.20;;;;;;5032267;28;21007;-78
2021/05/01 05:25:48;;;;;;;1.50;1.20;;;7.50;98.20;;;;;;5000920;28;20502;-78
2021/05/01 05:28:14;;;;;;;1.50;1.20;;;7.50;98.20;;;;;;5020948;28;20465;-78
2021/05/01 05:30:40;;;;;;;1.53;1.30;;;7.60;98.20;;;;;;4997935;28;21195;-78
2021/05/01 05:33:10;;;;;;;1.50;1.30;;;7.70;98.20;;;;;;5009921;28;20516;-77
2021/05/01 05:35:39;;;;;;;1.50;1.20;;;7.80;98.20;;;;;;5009695;28;20512;-78
2021/05/01 05:38:05;;;;;;;1.70;1.20;;;7.90;98.20;;;;;;5016085;28;20494;-78
2021/05/01 05:40:34;;;;;;;1.50;1.20;;;8.10;98.20;;;;;;5002603;28;20467;-78
2021/05/01 05:43:01;;;;;;;1.50;1.20;;;8.30;98.20;;;;;;5013227;28;20491;-78
2021/05/01 05:45:30;;;;;;;2.80;2.07;;;8.50;98.20;;;;;;4994509;28;20466;-78
2021/05/01 05:47:57;;;;;;;1.50;1.20;;;8.70;98.20;;;;;;5004944;28;20500;-78
2021/05/01 05:50:26;;;;;;;1.50;1.20;;;8.80;98.20;;;;;;5008041;28;20455;-78
2021/05/01 05:52:53;;;;;;;1.50;1.20;;;9.00;98.20;;;;;;4997836;28;20522;-78
2021/05/01 05:55:19;;;;;;;1.50;1.10;;;9.20;98.20;;;;;;4996987;28;20567;-78
2021/05/01 05:57:50;;;;;;;1.50;1.20;;;9.40;98.20;;;;;;5023691;28;20488;-78
2021/05/01 06:00:24;;;;;;;1.60;1.10;;;9.50;98.20;;;;;;5004523;28;20471;-78
2021/05/01 06:02:52;;;;;;;1.50;1.10;;;9.70;98.20;;;;;;5014724;28;20491;-78
2021/05/01 06:05:25;;;;;;;1.50;1.10;;;9.80;98.20;;;;;;4997174;28;20496;-78
2021/05/01 06:07:56;;;;;;;1.50;1.20;;;10.00;98.20;;;;;;5017131;28;20841;-78
2021/05/01 06:10:23;;;;;;;1.50;1.17;;;10.10;98.20;;;;;;5003566;28;20504;-78
2021/05/01 06:12:54;;;;;;;1.50;1.10;;;10.20;98.10;;;;;;5013621;28;20499;-78
2021/05/01 06:15:20;;;;;;;1.50;1.13;;;10.30;96.90;;;;;;5003211;28;20491;-78
2021/05/01 06:17:49;;;;;;;1.50;1.10;;;10.40;96.90;;;;;;5011828;28;20479;-78
2021/05/01 06:20:16;;;;;;;1.50;1.10;;;10.60;95.80;;;;;;5001915;28;20518;-77
2021/05/01 06:22:42;;;;;;;1.50;1.10;;;10.70;95.80;;;;;;5018671;28;20601;-77
2021/05/01 06:25:11;;;;;;;1.50;1.10;;;10.90;95.60;;;;;;5007075;28;20833;-78
2021/05/01 06:27:38;;;;;;;1.50;1.00;;;11.10;95.10;;;;;;5021593;28;20478;-78
2021/05/01 06:30:07;;;;;;;1.50;1.07;;;11.30;93.20;;;;;;5009144;28;20503;-78
2021/05/01 06:32:34;;;;;;;1.50;1.10;;;11.50;92.90;;;;;;5080475;23;20507;-78
2021/05/01 06:35:01;;;;;;;1.50;1.10;;;11.70;93.00;;;;;;5005652;28;20485;-79
2021/05/01 06:37:28;;;;;;;1.50;1.07;;;11.90;90.10;;;;;;5006589;28;20484;-79
2021/05/01 06:40:01;;;;;;;1.50;1.00;;;12.00;90.90;;;;;;4996643;28;20512;-79
2021/05/01 06:42:31;;;;;;;1.50;1.00;;;12.20;89.90;;;;;;4997413;28;21049;-79
2021/05/01 06:45:03;;;;;;;1.50;1.10;;;12.20;89.60;;;;;;4988391;28;20623;-78
2021/05/01 06:47:35;;;;;;;1.50;0.90;;;12.40;88.90;;;;;;4991458;28;21075;-79
2021/05/01 06:50:07;;;;;;;1.50;1.10;;;12.60;88.60;;;;;;5007042;28;20472;-78
2021/05/01 06:52:37;;;;;;;1.50;1.00;;;12.50;86.60;;;;;;4990537;28;20886;-78
2021/05/01 06:55:05;;;;;;;1.50;1.00;;;12.50;87.40;;;;;;4982137;28;20855;-79
2021/05/01 06:57:32;;;;;;;1.50;1.10;;;12.70;87.50;;;;;;4979919;28;20534;-79
2021/05/01 06:59:59;;;;;;;1.50;0.90;;;12.80;86.60;;;;;;4980227;28;20473;-78
2021/05/01 07:02:28;;;;;;;1.50;1.00;;;12.80;85.90;;;;;;4981061;28;21130;-78
2021/05/01 07:04:58;;;;;;;1.60;1.30;;;12.90;87.00;;;;;;4980567;28;20542;-77
2021/05/01 07:07:25;;;;;;;1.50;1.00;;;13.00;85.80;;;;;;4974103;28;20481;-77
2021/05/01 07:09:52;;;;;;;1.50;1.00;;;13.10;85.00;;;;;;4976616;28;20470;-77
2021/05/01 07:12:20;;;;;;;1.50;1.00;;;13.30;84.40;;;;;;4979293;28;20575;-78
2021/05/01 07:14:47;;;;;;;1.50;0.97;;;13.50;84.30;;;;;;4981664;28;20497;-78
2021/05/01 07:17:14;;;;;;;1.50;1.00;;;13.70;82.90;;;;;;4975178;28;20749;-78
2021/05/01 07:19:43;;;;;;;2.03;1.30;;;13.80;81.80;;;;;;4995428;28;20543;-77
2021/05/01 07:22:11;;;;;;;1.50;1.00;;;13.80;81.90;;;;;;4968481;28;20482;-77
2021/05/01 07:24:38;;;;;;;1.50;1.00;;;13.80;81.50;;;;;;4976252;28;20544;-78
2021/05/01 07:27:07;;;;;;;1.50;0.90;;;13.80;82.40;;;;;;4974691;28;20507;-77
2021/05/01 07:29:36;;;;;;;1.50;1.00;;;13.80;82.20;;;;;;4974589;28;20466;-78
2021/05/01 07:32:04;;;;;;;1.50;1.00;;;13.90;81.40;;;;;;4975772;28;20484;-77
2021/05/01 07:34:32;;;;;;;1.50;1.00;;;13.80;81.50;;;;;;4987370;28;20485;-78
2021/05/01 07:37:03;;;;;;;1.50;1.00;;;13.80;80.80;;;;;;4971669;28;20516;-77
2021/05/01 07:39:32;;;;;;;1.50;1.07;;;13.80;80.70;;;;;;4985047;28;20469;-78
2021/05/01 07:42:00;;;;;;;1.50;0.90;;;13.70;80.30;;;;;;4972958;28;21057;-77
2021/05/01 07:44:31;;;;;;;1.50;0.97;;;13.80;81.00;;;;;;4981470;28;20719;-77
2021/05/01 07:46:58;;;;;;;1.50;0.90;;;14.10;80.70;;;;;;4974917;28;20507;-77
2021/05/01 07:49:26;;;;;;;1.50;1.00;;;14.30;79.30;;;;;;4986477;28;20465;-77
2021/05/01 07:51:52;;;;;;;1.50;0.90;;;14.40;78.80;;;;;;4976314;28;20499;-78
2021/05/01 07:54:18;;;;;;;1.60;1.20;;;14.40;78.90;;;;;;4977973;28;20515;-77
2021/05/01 07:56:46;;;;;;;1.50;1.00;;;14.60;78.80;;;;;;4965927;28;20494;-79
2021/05/01 07:59:12;;;;;;;1.50;0.90;;;14.70;77.50;;;;;;4978626;28;20465;-79
2021/05/01 08:01:38;;;;;;;1.50;0.90;;;14.80;77.50;;;;;;4966337;28;20482;-78
2021/05/01 08:04:05;;;;;;;1.50;0.93;;;14.90;77.20;;;;;;4980562;28;20481;-78
2021/05/01 08:06:31;;;;;;;1.50;1.00;;;14.90;76.50;;;;;;4979921;28;20488;-79
2021/05/01 08:09:00;;;;;;;1.50;0.90;;;15.00;76.40;;;;;;4984305;28;20906;-78
2021/05/01 08:11:26;;;;;;;1.50;1.00;;;15.00;75.70;;;;;;4980085;28;20480;-79
2021/05/01 08:13:56;;;;;;;1.50;1.00;;;15.00;75.50;;;;;;4992849;28;20491;-79
2021/05/01 08:16:24;;;;;;;1.50;1.00;;;15.00;75.90;;;;;;4973011;28;20481;-79
2021/05/01 08:18:52;;;;;;;1.50;1.00;;;15.00;76.30;;;;;;4988861;28;20557;-78
2021/05/01 08:21:18;;;;;;;1.50;1.00;;;15.10;77.10;;;;;;4975322;28;20476;-78
2021/05/01 08:23:47;;;;;;;1.50;1.00;;;15.30;76.90;;;;;;4988156;28;20490;-78
2021/05/01 08:26:13;;;;;;;1.50;1.00;;;15.30;75.60;;;;;;4974995;28;20488;-78
2021/05/01 08:28:43;;;;;;;1.50;1.00;;;15.20;75.00;;;;;;4989170;28;20524;-78
2021/05/01 08:31:10;;;;;;;1.50;0.90;;;15.20;76.20;;;;;;4973169;28;20488;-78
2021/05/01 08:33:36;;;;;;;1.50;1.00;;;15.20;75.60;;;;;;4992825;28;20492;-80
2021/05/01 08:36:03;;;;;;;1.50;0.90;;;15.30;74.70;;;;;;4965678;28;20580;-78
2021/05/01 08:38:32;;;;;;;1.60;1.20;;;15.50;75.30;;;;;;4995860;28;20537;-78
2021/05/01 08:40:59;;;;;;;1.50;0.90;;;15.50;74.20;;;;;;4973954;28;20520;-78
2021/05/01 08:43:26;;;;;;;1.50;1.00;;;15.70;73.80;;;;;;4986398;28;20482;-78
2021/05/01 08:45:53;;;;;;;3.30;1.30;;;15.80;74.70;;;;;;4973667;28;20761;-79
2021/05/01 08:48:21;;;;;;;1.50;1.00;;;15.90;73.30;;;;;;4994586;28;20492;-78
2021/05/01 08:50:51;;;;;;;1.50;1.00;;;16.00;74.40;;;;;;4974198;28;20554;-78
2021/05/01 08:53:17;;;;;;;1.50;0.90;;;15.90;73.90;;;;;;4994100;28;20511;-78
2021/05/01 08:55:44;;;;;;;1.50;0.90;;;16.00;73.60;;;;;;4985813;28;20479;-77
2021/05/01 08:58:11;;;;;;;1.50;1.00;;;16.10;73.00;;;;;;4968041;28;20481;-77
2021/05/01 09:00:40;;;;;;;1.50;1.00;;;16.30;73.50;;;;;;4974255;28;21095;-77
2021/05/01 09:03:08;;;;;;;1.50;1.00;;;16.50;72.60;;;;;;4978361;28;20908;-78
2021/05/01 09:05:37;;;;;;;1.50;0.90;;;16.60;71.20;;;;;;4982292;28;20504;-76
2021/05/01 09:08:08;;;;;;;1.50;1.00;;;16.40;71.70;;;;;;4979663;28;20502;-79
2021/05/01 09:10:42;;;;;;;1.50;0.90;;;16.40;72.90;;;;;;4981360;28;20541;-78
2021/05/01 09:13:16;;;;;;;1.50;1.00;;;16.20;70.50;;;;;;4980263;28;20540;-76
2021/05/01 09:15:55;;;;;;;1.50;0.90;;;16.00;70.80;;;;;;4984515;28;20471;-77
2021/05/01 09:18:22;;;;;;;1.50;1.00;;;16.00;70.10;;;;;;4975661;28;20921;-77
2021/05/01 09:20:49;;;;;;;1.50;1.00;;;16.10;69.60;;;;;;4977476;28;20469;-78
2021/05/01 09:23:16;;;;;;;1.50;0.90;;;16.20;68.90;;;;;;4989670;28;20664;-78
2021/05/01 09:25:54;;;;;;;1.50;0.90;;;16.20;68.60;;;;;;4983465;28;20572;-78
2021/05/01 09:28:22;;;;;;;1.50;0.90;;;16.20;69.70;;;;;;4989510;28;20488;-77
2021/05/01 09:31:03;;;;;;;1.50;0.90;;;16.30;68.30;;;;;;4969819;28;21014;-77
2021/05/01 09:33:31;;;;;;;1.50;0.90;;;16.40;68.70;;;;;;5011678;28;20500;-78
2021/05/01 09:36:04;;;;;;;1.50;1.00;;;16.50;69.70;;;;;;4991832;28;20475;-79
2021/05/01 09:38:32;;;;;;;1.50;0.90;;;16.40;70.00;;;;;;4996450;28;20476;-79
2021/05/01 09:41:06;;;;;;;1.47;0.90;;;16.30;69.90;;;;;;4982770;28;20468;-78
2021/05/01 09:43:38;;;;;;;1.50;0.90;;;16.20;68.60;;;;;;5000797;28;21043;-78
2021/05/01 09:46:14;;;;;;;1.50;0.90;;;16.30;68.70;;;;;;4974036;28;20496;-77
2021/05/01 09:48:41;;;;;;;1.50;0.90;;;16.40;68.40;;;;;;4989524;28;20476;-78
2021/05/01 09:51:08;;;;;;;1.50;0.93;;;16.50;67.30;;;;;;4986286;28;21117;-77
2021/05/01 09:53:38;;;;;;;1.47;0.90;;;16.60;68.40;;;;;;4986247;28;20533;-78
2021/05/01 09:56:11;;;;;;;1.50;0.93;;;16.80;66.30;;;;;;4972348;28;22016;-78
2021/05/01 09:58:52;;;;;;;1.50;1.00;;;16.80;66.30;;;;;;4971930;28;20467;-78
2021/05/01 10:01:18;;;;;;;1.70;1.43;;;16.90;65.70;;;;;;4970596;28;20516;-78
2021/05/01 10:03:45;;;;;;;1.50;0.90;;;17.10;66.30;;;;;;4986935;28;20500;-79
2021/05/01 10:06:19;;;;;;;1.50;0.97;;;17.30;64.10;;;;;;4969742;28;20729;-78
2021/05/01 10:08:53;;;;;;;1.50;0.93;;;17.50;64.00;;;;;;4985453;28;20522;-78
2021/05/01 10:11:23;;;;;;;1.50;0.90;;;17.60;64.10;;;;;;4973602;28;20549;-78
2021/05/01 10:13:51;;;;;;;1.50;0.90;;;17.70;63.80;;;;;;4970899;28;20489;-78
2021/05/01 10:16:18;;;;;;;1.60;1.30;;;17.90;64.10;;;;;;4971963;28;20532;-79
2021/05/01 10:19:03;;;;;;;1.50;0.90;;;18.10;64.00;;;;;;4994478;28;20465;-79
2021/05/01 10:21:41;;;;;;;1.50;0.90;;;18.30;64.20;;;;;;4970163;28;20732;-79
2021/05/01 10:24:09;;;;;;;1.50;0.90;;;18.60;62.80;;;;;;4980067;28;20536;-78
2021/05/01 10:26:44;;;;;;;1.50;0.90;;;18.70;63.00;;;;;;4969466;28;20851;-79
2021/05/01 10:29:24;;;;;;;1.50;0.90;;;18.80;61.10;;;;;;4974863;28;20502;-79
2021/05/01 10:31:54;;;;;;;1.50;0.90;;;18.80;61.20;;;;;;4982187;28;20515;-80
2021/05/01 10:34:23;;;;;;;1.50;0.90;;;18.90;61.40;;;;;;4987414;28;20501;-78
2021/05/01 10:36:57;;;;;;;1.50;0.90;;;19.00;61.00;;;;;;4977108;28;20496;-79
2021/05/01 10:39:24;;;;;;;1.50;0.90;;;19.10;60.30;;;;;;4970443;28;20469;-78
2021/05/01 10:41:58;;;;;;;1.50;0.90;;;19.00;61.40;;;;;;4976531;28;20505;-78
2021/05/01 10:45:00;;;;;;;1.50;0.90;;;18.80;60.40;;;;;;4993382;28;20547;-78
2021/05/01 10:47:27;;;;;;;1.50;0.90;;;18.40;61.10;;;;;;4953870;28;20885;-78
2021/05/01 10:49:55;;;;;;;1.50;1.00;;;18.00;62.60;;;;;;4972678;28;20918;-78
2021/05/01 10:52:23;;;;;;;1.50;0.90;;;17.80;62.60;;;;;;4979203;28;20720;-78
2021/05/01 10:55:01;;;;;;;1.47;0.90;;;17.70;63.20;;;;;;4979331;28;20462;-78
2021/05/01 10:57:28;;;;;;;1.43;0.90;;;17.80;63.30;;;;;;4959964;28;20517;-78
2021/05/01 11:00:04;;;;;;;1.50;0.90;;;18.00;61.30;;;;;;4982373;28;20473;-79
2021/05/01 11:02:36;;;;;;;1.43;0.90;;;18.50;60.70;;;;;;4983220;28;20511;-78
2021/05/01 11:05:06;;;;;;;1.97;1.77;;;18.80;58.10;;;;;;4973939;28;20505;-79
2021/05/01 11:07:43;;;;;;;1.50;1.00;;;19.00;59.30;;;;;;4973145;28;21025;-78
2021/05/01 11:10:15;;;;;;;1.50;0.90;;;19.10;60.20;;;;;;4976796;28;20473;-81
2021/05/01 11:12:50;;;;;;;1.50;0.90;;;19.30;58.30;;;;;;4987510;28;20483;-78
2021/05/01 11:15:19;;;;;;;1.50;0.90;;;19.40;57.90;;;;;;4975724;28;20466;-79
2021/05/01 11:18:00;;;;;;;1.50;0.90;;;19.60;56.90;;;;;;4966504;28;20537;-78
2021/05/01 11:20:30;;;;;;;1.50;0.90;;;19.80;57.90;;;;;;4972703;28;21293;-79
2021/05/01 11:22:58;;;;;;;1.50;0.90;;;20.20;57.90;;;;;;4982573;28;20497;-79
2021/05/01 11:25:24;;;;;;;1.50;0.90;;;20.50;57.70;;;;;;4982624;28;20521;-79
2021/05/01 11:27:53;;;;;;;1.50;0.90;;;20.60;56.80;;;;;;4970425;28;20490;-78
2021/05/01 11:30:24;;;;;;;1.50;0.90;;;20.60;56.90;;;;;;4984094;28;20595;-79
2021/05/01 11:32:52;;;;;;;1.50;0.90;;;20.30;57.00;;;;;;4985317;28;20500;-78
2021/05/01 11:35:28;;;;;;;1.50;0.90;;;19.60;56.80;;;;;;4976550;28;20537;-78
2021/05/01 11:37:57;;;;;;;1.50;0.90;;;19.30;57.20;;;;;;4968274;28;20485;-79
2021/05/01 11:40:29;;;;;;;1.50;0.90;;;18.80;59.40;;;;;;4976447;28;20464;-78
2021/05/01 11:42:57;;;;;;;1.50;1.00;;;18.50;59.70;;;;;;4982686;28;20537;-79
2021/05/01 11:45:33;;;;;;;1.50;0.93;;;18.20;59.40;;;;;;4983724;28;20489;-77
2021/05/01 11:48:06;;;;;;;1.50;1.00;;;18.00;60.50;;;;;;4968578;28;20492;-78
2021/05/01 11:50:33;;;;;;;1.50;1.00;;;17.90;60.70;;;;;;4987546;28;20884;-78
2021/05/01 11:53:23;;;;;;;1.50;1.00;;;17.60;60.20;;;;;;4989470;28;20487;-78
2021/05/01 11:55:56;;;;;;;1.50;0.97;;;17.30;60.20;;;;;;4971831;28;20460;-79
2021/05/01 11:58:30;;;;;;;1.50;0.90;;;17.10;61.60;;;;;;4985169;28;20589;-79
2021/05/01 12:01:15;;;;;;;1.47;0.90;;;17.00;62.20;;;;;;4977343;28;20538;-80
2021/05/01 12:03:42;;;;;;;1.50;0.90;;;16.80;62.10;;;;;;4988354;28;20481;-78
2021/05/01 12:06:18;;;;;;;1.50;0.90;;;16.70;63.30;;;;;;4975140;28;21053;-79
2021/05/01 12:08:45;;;;;;;1.50;0.90;;;17.00;63.20;;;;;;4985344;28;20475;-78
2021/05/01 12:11:12;;;;;;;1.50;0.90;;;17.40;61.40;;;;;;4978259;28;20495;-80
2021/05/01 12:13:41;;;;;;;1.50;0.90;;;17.90;61.70;;;;;;4995934;28;20498;-79
2021/05/01 12:16:17;;;;;;;1.47;0.90;;;18.40;59.30;;;;;;4968479;28;20499;-79
2021/05/01 12:18:46;;;;;;;1.50;1.00;;;18.70;58.90;;;;;;4982010;28;20584;-79
2021/05/01 12:21:15;;;;;;;1.50;0.90;;;19.10;59.10;;;;;;4976925;28;20485;-79
2021/05/01 12:23:43;;;;;;;1.50;0.90;;;19.40;57.40;;;;;;4995580;28;20940;-79
2021/05/01 12:26:37;;;;;;;1.50;0.90;;;19.70;57.90;;;;;;4974153;28;20480;-79
2021/05/01 12:29:29;;;;;;;1.50;0.90;;;20.00;55.40;;;;;;4977713;28;20461;-80
2021/05/01 12:31:58;;;;;;;1.50;0.90;;;20.40;55.00;;;;;;4984174;28;20578;-80
2021/05/01 12:34:57;;;;;;;1.50;0.87;;;20.80;55.80;;;;;;4992151;28;20481;-79
2021/05/01 12:37:26;;;;;;;1.50;0.90;;;21.10;54.90;;;;;;4989620;28;21137;-80
2021/05/01 12:39:54;;;;;;;1.50;0.90;;;21.30;54.80;;;;;;5009353;28;20807;-79
2021/05/01 12:42:27;;;;;;;1.50;0.87;;;21.30;54.60;;;;;;5001182;28;20852;-81
2021/05/01 12:44:54;;;;;;;1.47;0.90;;;21.10;54.70;;;;;;5008992;28;20495;-79
2021/05/01 12:47:45;;;;;;;1.43;0.90;;;20.60;55.50;;;;;;4996055;28;20490;-79
2021/05/01 12:50:22;;;;;;;1.40;0.90;;;20.20;55.90;;;;;;4997370;28;20583;-80
2021/05/01 12:52:52;;;;;;;1.50;0.90;;;20.10;56.40;;;;;;5005015;28;20529;-81
2021/05/01 12:55:19;;;;;;;1.60;1.10;;;20.10;56.40;;;;;;5011168;28;20464;-82
2021/05/01 12:57:47;;;;;;;1.50;0.90;;;20.00;55.60;;;;;;4992282;28;21011;-79
2021/05/01 13:00:26;;;;;;;1.50;0.90;;;19.90;55.60;;;;;;4998633;28;20907;-82
2021/05/01 13:03:22;;;;;;;1.40;0.90;;;19.90;55.60;;;;;;5004689;28;20494;-80